sensor_id;sensor_type;location;lat;lon;timestamp;pressure;altitude;pressure_sealevel;temperature;humidity
54270;BME280;40181;51.560;13.000;2023-03-04T00:00:56;101205.81;;;0.63;100.00
54270;BME280;40181;51.560;13.000;2023-03-04T00:03:25;101210.06;;;0.62;100.00
54270;BME280;40181;51.560;13.000;2023-03-04T00:05:54;101208.69;;;0.67;100.00
54270;BME280;40181;51.560;13.000;2023-03-04T00:08:23;101202.31;;;0.76;100.00
54270;BME280;40181;51.560;13.000;2023-03-04T00:10:51;101202.53;;;0.52;100.00
54270;BME280;40181;51.560;13.000;2023-03-04T00:13:20;101196.34;;;0.77;100.00
54270;BME280;40181;51.560;13.000;2023-03-04T00:15:52;101201.53;;;0.90;100.00
54270;BME280;40181;51.560;13.000;2023-03-04T00:18:21;101195.38;;;0.75;100.00
54270;BME280;40181;51.560;13.000;2023-03-04T00:20:50;101190.78;;;0.71;100.00
54270;BME280;40181;51.560;13.000;2023-03-04T00:23:19;101184.13;;;0.74;100.00
54270;BME280;40181;51.560;13.000;2023-03-04T00:25:48;101189.69;;;0.67;100.00
54270;BME280;40181;51.560;13.000;2023-03-04T00:28:17;101191.50;;;0.68;100.00
54270;BME280;40181;51.560;13.000;2023-03-04T00:30:46;101181.50;;;0.88;100.00
54270;BME280;40181;51.560;13.000;2023-03-04T00:33:18;101181.81;;;0.79;100.00
54270;BME280;40181;51.560;13.000;2023-03-04T00:35:46;101174.38;;;0.57;100.00
54270;BME280;40181;51.560;13.000;2023-03-04T00:38:15;101172.56;;;0.82;100.00
54270;BME280;40181;51.560;13.000;2023-03-04T00:40:44;101173.53;;;0.85;100.00
54270;BME280;40181;51.560;13.000;2023-03-04T00:43:13;101163.34;;;0.73;100.00
54270;BME280;40181;51.560;13.000;2023-03-04T00:45:42;101164.91;;;0.84;100.00
54270;BME280;40181;51.560;13.000;2023-03-04T00:48:10;101160.72;;;0.86;100.00
54270;BME280;40181;51.560;13.000;2023-03-04T00:50:43;101163.97;;;0.97;100.00
54270;BME280;40181;51.560;13.000;2023-03-04T00:53:13;101150.50;;;0.74;100.00
54270;BME280;40181;51.560;13.000;2023-03-04T00:55:41;101141.72;;;0.86;100.00
54270;BME280;40181;51.560;13.000;2023-03-04T00:58:10;101136.91;;;0.92;100.00
54270;BME280;40181;51.560;13.000;2023-03-04T01:00:39;101140.66;;;0.82;100.00
54270;BME280;40181;51.560;13.000;2023-03-04T01:03:08;101133.44;;;0.91;100.00
54270;BME280;40181;51.560;13.000;2023-03-04T01:05:37;101128.22;;;1.05;99.88
54270;BME280;40181;51.560;13.000;2023-03-04T01:08:08;101130.28;;;1.10;99.36
54270;BME280;40181;51.560;13.000;2023-03-04T01:10:37;101120.81;;;0.96;99.62
54270;BME280;40181;51.560;13.000;2023-03-04T01:13:06;101123.00;;;0.90;100.00
54270;BME280;40181;51.560;13.000;2023-03-04T01:15:35;101124.66;;;1.03;99.42
54270;BME280;40181;51.560;13.000;2023-03-04T01:18:03;101120.41;;;0.90;99.84
54270;BME280;40181;51.560;13.000;2023-03-04T01:20:32;101112.53;;;1.02;99.66
54270;BME280;40181;51.560;13.000;2023-03-04T01:23:01;101105.59;;;1.16;98.94
54270;BME280;40181;51.560;13.000;2023-03-04T01:25:33;101109.84;;;1.15;98.26
54270;BME280;40181;51.560;13.000;2023-03-04T01:28:02;101109.25;;;1.19;98.58
54270;BME280;40181;51.560;13.000;2023-03-04T01:30:31;101105.16;;;1.23;98.20
54270;BME280;40181;51.560;13.000;2023-03-04T01:33:00;101091.19;;;1.06;98.75
54270;BME280;40181;51.560;13.000;2023-03-04T01:35:28;101101.38;;;1.03;99.22
54270;BME280;40181;51.560;13.000;2023-03-04T01:37:57;101091.72;;;1.00;98.98
54270;BME280;40181;51.560;13.000;2023-03-04T01:40:26;101077.66;;;0.81;100.00
54270;BME280;40181;51.560;13.000;2023-03-04T01:42:58;101081.75;;;0.78;100.00
54270;BME280;40181;51.560;13.000;2023-03-04T01:45:27;101083.28;;;0.61;100.00
54270;BME280;40181;51.560;13.000;2023-03-04T01:47:56;101079.25;;;0.79;100.00
54270;BME280;40181;51.560;13.000;2023-03-04T01:50:26;101081.44;;;0.87;100.00
54270;BME280;40181;51.560;13.000;2023-03-04T01:52:57;101075.47;;;0.88;100.00
54270;BME280;40181;51.560;13.000;2023-03-04T01:55:26;101069.50;;;0.75;100.00
54270;BME280;40181;51.560;13.000;2023-03-04T01:57:59;101068.69;;;0.90;100.00
54270;BME280;40181;51.560;13.000;2023-03-04T02:00:29;101075.63;;;0.91;100.00
54270;BME280;40181;51.560;13.000;2023-03-04T02:03:02;101062.81;;;1.07;99.79
54270;BME280;40181;51.560;13.000;2023-03-04T02:05:33;101067.19;;;1.08;99.67
54270;BME280;40181;51.560;13.000;2023-03-04T02:08:03;101063.34;;;1.02;100.00
54270;BME280;40181;51.560;13.000;2023-03-04T02:10:33;101061.44;;;0.84;100.00
54270;BME280;40181;51.560;13.000;2023-03-04T02:13:05;101055.38;;;0.99;99.72
54270;BME280;40181;51.560;13.000;2023-03-04T02:15:34;101053.53;;;0.96;100.00
54270;BME280;40181;51.560;13.000;2023-03-04T02:18:04;101049.78;;;1.06;99.42
54270;BME280;40181;51.560;13.000;2023-03-04T02:20:40;101047.03;;;1.03;99.47
54270;BME280;40181;51.560;13.000;2023-03-04T02:23:14;101041.59;;;1.13;99.09
54270;BME280;40181;51.560;13.000;2023-03-04T02:25:46;101044.19;;;1.13;98.79
54270;BME280;40181;51.560;13.000;2023-03-04T02:28:20;101040.41;;;1.08;98.73
54270;BME280;40181;51.560;13.000;2023-03-04T02:30:49;101038.91;;;1.12;98.60
54270;BME280;40181;51.560;13.000;2023-03-04T02:33:18;101052.75;;;1.12;98.27
54270;BME280;40181;51.560;13.000;2023-03-04T02:35:47;101038.31;;;1.16;98.15
54270;BME280;40181;51.560;13.000;2023-03-04T02:38:16;101041.16;;;1.05;98.19
54270;BME280;40181;51.560;13.000;2023-03-04T02:40:46;101031.78;;;1.07;98.27
54270;BME280;40181;51.560;13.000;2023-03-04T02:43:16;101038.31;;;1.16;97.82
54270;BME280;40181;51.560;13.000;2023-03-04T02:45:48;101032.97;;;1.13;97.72
54270;BME280;40181;51.560;13.000;2023-03-04T02:48:18;101033.56;;;1.08;97.74
54270;BME280;40181;51.560;13.000;2023-03-04T02:50:50;101039.72;;;1.10;97.99
54270;BME280;40181;51.560;13.000;2023-03-04T02:53:20;101038.63;;;1.07;97.83
54270;BME280;40181;51.560;13.000;2023-03-04T02:55:49;101024.28;;;1.12;97.72
54270;BME280;40181;51.560;13.000;2023-03-04T02:58:21;101028.91;;;1.03;97.99
54270;BME280;40181;51.560;13.000;2023-03-04T03:00:49;101024.81;;;1.06;98.19
54270;BME280;40181;51.560;13.000;2023-03-04T03:03:18;101032.16;;;1.14;97.90
54270;BME280;40181;51.560;13.000;2023-03-04T03:05:47;101037.06;;;1.24;97.55
54270;BME280;40181;51.560;13.000;2023-03-04T03:08:16;101032.69;;;1.23;97.59
54270;BME280;40181;51.560;13.000;2023-03-04T03:10:45;101033.13;;;1.16;97.64
54270;BME280;40181;51.560;13.000;2023-03-04T03:13:14;101040.63;;;1.11;97.69
54270;BME280;40181;51.560;13.000;2023-03-04T03:15:45;101041.69;;;1.15;97.77
54270;BME280;40181;51.560;13.000;2023-03-04T03:18:14;101030.53;;;1.16;97.66
54270;BME280;40181;51.560;13.000;2023-03-04T03:20:43;101032.97;;;1.13;97.63
54270;BME280;40181;51.560;13.000;2023-03-04T03:23:12;101032.31;;;1.17;97.64
54270;BME280;40181;51.560;13.000;2023-03-04T03:25:42;101035.19;;;1.21;97.54
54270;BME280;40181;51.560;13.000;2023-03-04T03:28:11;101032.03;;;1.12;97.83
54270;BME280;40181;51.560;13.000;2023-03-04T03:30:39;101024.13;;;1.24;97.81
54270;BME280;40181;51.560;13.000;2023-03-04T03:33:11;101028.94;;;1.18;97.93
54270;BME280;40181;51.560;13.000;2023-03-04T03:35:40;101018.31;;;1.13;97.72
54270;BME280;40181;51.560;13.000;2023-03-04T03:38:08;101022.78;;;1.16;97.99
54270;BME280;40181;51.560;13.000;2023-03-04T03:40:37;101012.53;;;1.32;97.36
54270;BME280;40181;51.560;13.000;2023-03-04T03:43:06;101014.47;;;1.21;97.64
54270;BME280;40181;51.560;13.000;2023-03-04T03:45:35;101012.06;;;1.24;97.48
54270;BME280;40181;51.560;13.000;2023-03-04T03:48:04;101003.47;;;1.26;97.18
54270;BME280;40181;51.560;13.000;2023-03-04T03:50:35;101011.50;;;1.30;97.67
54270;BME280;40181;51.560;13.000;2023-03-04T03:53:04;101017.44;;;1.13;98.05
54270;BME280;40181;51.560;13.000;2023-03-04T03:55:33;101005.03;;;1.22;97.80
54270;BME280;40181;51.560;13.000;2023-03-04T03:58:02;101006.69;;;1.06;98.68
54270;BME280;40181;51.560;13.000;2023-03-04T04:00:31;101000.91;;;1.26;97.80
54270;BME280;40181;51.560;13.000;2023-03-04T04:03:00;101011.25;;;1.26;97.69
54270;BME280;40181;51.560;13.000;2023-03-04T04:05:29;100989.50;;;1.37;96.93
54270;BME280;40181;51.560;13.000;2023-03-04T04:08:01;100988.47;;;1.35;96.96
54270;BME280;40181;51.560;13.000;2023-03-04T04:10:30;100995.97;;;1.30;96.86
54270;BME280;40181;51.560;13.000;2023-03-04T04:12:59;100992.69;;;1.33;97.39
54270;BME280;40181;51.560;13.000;2023-03-04T04:15:27;100996.72;;;1.28;97.34
54270;BME280;40181;51.560;13.000;2023-03-04T04:17:56;100998.94;;;1.36;96.87
54270;BME280;40181;51.560;13.000;2023-03-04T04:20:25;100981.72;;;1.37;97.00
54270;BME280;40181;51.560;13.000;2023-03-04T04:22:54;100997.25;;;1.37;96.70
54270;BME280;40181;51.560;13.000;2023-03-04T04:25:26;100982.16;;;1.45;96.76
54270;BME280;40181;51.560;13.000;2023-03-04T04:27:54;100987.22;;;1.43;96.64
54270;BME280;40181;51.560;13.000;2023-03-04T04:30:23;100994.03;;;1.41;96.90
54270;BME280;40181;51.560;13.000;2023-03-04T04:32:52;100996.63;;;1.26;97.01
54270;BME280;40181;51.560;13.000;2023-03-04T04:35:25;100990.47;;;1.39;96.82
54270;BME280;40181;51.560;13.000;2023-03-04T04:37:54;100982.50;;;1.51;96.48
54270;BME280;40181;51.560;13.000;2023-03-04T04:40:25;100986.78;;;1.50;96.38
54270;BME280;40181;51.560;13.000;2023-03-04T04:42:54;100995.38;;;1.34;97.10
54270;BME280;40181;51.560;13.000;2023-03-04T04:45:23;100995.53;;;1.37;96.87
54270;BME280;40181;51.560;13.000;2023-03-04T04:47:53;100980.63;;;1.48;96.40
54270;BME280;40181;51.560;13.000;2023-03-04T04:50:22;100977.94;;;1.47;96.43
54270;BME280;40181;51.560;13.000;2023-03-04T04:52:51;100982.31;;;1.48;96.57
54270;BME280;40181;51.560;13.000;2023-03-04T04:55:20;100973.31;;;1.41;96.79
54270;BME280;40181;51.560;13.000;2023-03-04T04:57:53;100968.03;;;1.40;96.97
54270;BME280;40181;51.560;13.000;2023-03-04T05:00:22;100964.84;;;1.44;97.55
54270;BME280;40181;51.560;13.000;2023-03-04T05:02:51;100964.19;;;1.48;97.40
54270;BME280;40181;51.560;13.000;2023-03-04T05:05:20;100966.53;;;1.28;98.11
54270;BME280;40181;51.560;13.000;2023-03-04T05:07:48;100962.34;;;1.45;97.71
54270;BME280;40181;51.560;13.000;2023-03-04T05:10:17;100960.75;;;1.32;97.75
54270;BME280;40181;51.560;13.000;2023-03-04T05:12:46;100954.66;;;1.47;97.24
54270;BME280;40181;51.560;13.000;2023-03-04T05:15:18;100956.41;;;1.48;97.56
54270;BME280;40181;51.560;13.000;2023-03-04T05:17:46;100955.25;;;1.58;97.64
54270;BME280;40181;51.560;13.000;2023-03-04T05:20:15;100955.56;;;1.32;97.87
54270;BME280;40181;51.560;13.000;2023-03-04T05:22:44;100961.81;;;1.51;98.04
54270;BME280;40181;51.560;13.000;2023-03-04T05:25:13;100954.84;;;1.50;97.44
54270;BME280;40181;51.560;13.000;2023-03-04T05:27:42;100950.47;;;1.49;97.61
54270;BME280;40181;51.560;13.000;2023-03-04T05:30:12;100946.78;;;1.60;97.51
54270;BME280;40181;51.560;13.000;2023-03-04T05:32:43;100957.53;;;1.36;97.93
54270;BME280;40181;51.560;13.000;2023-03-04T05:35:12;100952.34;;;1.36;98.60
54270;BME280;40181;51.560;13.000;2023-03-04T05:37:41;100933.78;;;1.44;98.53
54270;BME280;40181;51.560;13.000;2023-03-04T05:40:10;100939.75;;;1.43;98.80
54270;BME280;40181;51.560;13.000;2023-03-04T05:42:40;100938.34;;;1.64;97.61
54270;BME280;40181;51.560;13.000;2023-03-04T05:45:10;100937.84;;;1.55;98.13
54270;BME280;40181;51.560;13.000;2023-03-04T05:47:39;100936.34;;;1.44;98.38
54270;BME280;40181;51.560;13.000;2023-03-04T05:50:11;100936.97;;;1.55;98.51
54270;BME280;40181;51.560;13.000;2023-03-04T05:52:39;100938.50;;;1.51;98.25
54270;BME280;40181;51.560;13.000;2023-03-04T05:55:09;100929.50;;;1.44;98.79
54270;BME280;40181;51.560;13.000;2023-03-04T05:57:38;100932.41;;;1.50;99.13
54270;BME280;40181;51.560;13.000;2023-03-04T06:00:07;100933.56;;;1.56;98.98
54270;BME280;40181;51.560;13.000;2023-03-04T06:02:38;100931.84;;;1.56;98.85
54270;BME280;40181;51.560;13.000;2023-03-04T06:05:10;100936.41;;;1.60;99.01
54270;BME280;40181;51.560;13.000;2023-03-04T06:07:40;100937.28;;;1.61;99.19
54270;BME280;40181;51.560;13.000;2023-03-04T06:10:10;100933.72;;;1.59;99.19
54270;BME280;40181;51.560;13.000;2023-03-04T06:12:40;100946.72;;;1.75;98.36
54270;BME280;40181;51.560;13.000;2023-03-04T06:15:10;100940.91;;;1.79;98.49
54270;BME280;40181;51.560;13.000;2023-03-04T06:17:39;100936.72;;;1.82;98.79
54270;BME280;40181;51.560;13.000;2023-03-04T06:20:12;100931.59;;;1.83;98.93
54270;BME280;40181;51.560;13.000;2023-03-04T06:22:41;100931.03;;;1.72;99.16
54270;BME280;40181;51.560;13.000;2023-03-04T06:25:09;100938.06;;;1.75;99.38
54270;BME280;40181;51.560;13.000;2023-03-04T06:27:38;100941.09;;;1.83;99.42
54270;BME280;40181;51.560;13.000;2023-03-04T06:30:08;100944.16;;;1.75;99.36
54270;BME280;40181;51.560;13.000;2023-03-04T06:32:37;100935.00;;;1.82;99.67
54270;BME280;40181;51.560;13.000;2023-03-04T06:35:08;100941.41;;;1.89;99.40
54270;BME280;40181;51.560;13.000;2023-03-04T06:37:40;100944.00;;;1.89;99.39
54270;BME280;40181;51.560;13.000;2023-03-04T06:40:10;100946.22;;;1.66;100.00
54270;BME280;40181;51.560;13.000;2023-03-04T06:42:39;100948.81;;;1.66;100.00
54270;BME280;40181;51.560;13.000;2023-03-04T06:45:09;100940.19;;;1.82;100.00
54270;BME280;40181;51.560;13.000;2023-03-04T06:47:38;100939.13;;;1.78;100.00
54270;BME280;40181;51.560;13.000;2023-03-04T06:50:12;100934.28;;;1.85;100.00
54270;BME280;40181;51.560;13.000;2023-03-04T06:52:41;100935.50;;;1.91;100.00
54270;BME280;40181;51.560;13.000;2023-03-04T06:55:10;100939.81;;;1.91;100.00
54270;BME280;40181;51.560;13.000;2023-03-04T06:57:39;100940.22;;;1.99;100.00
54270;BME280;40181;51.560;13.000;2023-03-04T07:00:09;100941.41;;;1.89;100.00
54270;BME280;40181;51.560;13.000;2023-03-04T07:02:38;100933.00;;;1.93;100.00
54270;BME280;40181;51.560;13.000;2023-03-04T07:05:08;100938.41;;;1.81;100.00
54270;BME280;40181;51.560;13.000;2023-03-04T07:07:39;100934.41;;;2.03;100.00
54270;BME280;40181;51.560;13.000;2023-03-04T07:10:09;100951.31;;;1.96;100.00
54270;BME280;40181;51.560;13.000;2023-03-04T07:12:38;100938.59;;;2.01;100.00
54270;BME280;40181;51.560;13.000;2023-03-04T07:15:07;100936.25;;;2.05;100.00
54270;BME280;40181;51.560;13.000;2023-03-04T07:17:37;100944.53;;;1.98;100.00
54270;BME280;40181;51.560;13.000;2023-03-04T07:20:06;100934.72;;;2.09;100.00
54270;BME280;40181;51.560;13.000;2023-03-04T07:22:38;100956.13;;;2.05;100.00
54270;BME280;40181;51.560;13.000;2023-03-04T07:25:07;100942.91;;;2.00;100.00
54270;BME280;40181;51.560;13.000;2023-03-04T07:27:36;100941.94;;;1.98;100.00
54270;BME280;40181;51.560;13.000;2023-03-04T07:30:06;100947.03;;;1.97;100.00
54270;BME280;40181;51.560;13.000;2023-03-04T07:32:36;100948.66;;;1.95;100.00
54270;BME280;40181;51.560;13.000;2023-03-04T07:35:05;100949.16;;;2.04;100.00
54270;BME280;40181;51.560;13.000;2023-03-04T07:37:35;100946.72;;;2.07;100.00
54270;BME280;40181;51.560;13.000;2023-03-04T07:40:07;100955.63;;;1.96;100.00
54270;BME280;40181;51.560;13.000;2023-03-04T07:42:37;100952.31;;;1.98;100.00
54270;BME280;40181;51.560;13.000;2023-03-04T07:45:10;100954.59;;;2.09;100.00
54270;BME280;40181;51.560;13.000;2023-03-04T07:47:39;100944.03;;;2.05;100.00
54270;BME280;40181;51.560;13.000;2023-03-04T07:50:08;100950.94;;;2.05;100.00
54270;BME280;40181;51.560;13.000;2023-03-04T07:52:41;100950.59;;;1.99;100.00
54270;BME280;40181;51.560;13.000;2023-03-04T07:55:13;100946.56;;;2.04;100.00
54270;BME280;40181;51.560;13.000;2023-03-04T07:57:43;100944.22;;;2.09;100.00
54270;BME280;40181;51.560;13.000;2023-03-04T08:00:14;100941.63;;;2.09;100.00
54270;BME280;40181;51.560;13.000;2023-03-04T08:02:43;100940.50;;;2.20;100.00
54270;BME280;40181;51.560;13.000;2023-03-04T08:05:12;100933.53;;;2.19;100.00
54270;BME280;40181;51.560;13.000;2023-03-04T08:07:43;100930.44;;;2.10;100.00
54270;BME280;40181;51.560;13.000;2023-03-04T08:10:12;100933.44;;;2.17;100.00
54270;BME280;40181;51.560;13.000;2023-03-04T08:12:41;100930.03;;;2.18;100.00
54270;BME280;40181;51.560;13.000;2023-03-04T08:15:10;100938.00;;;2.21;100.00
54270;BME280;40181;51.560;13.000;2023-03-04T08:17:39;100929.81;;;2.30;100.00
54270;BME280;40181;51.560;13.000;2023-03-04T08:20:09;100933.34;;;2.32;100.00
54270;BME280;40181;51.560;13.000;2023-03-04T08:22:39;100936.13;;;2.35;100.00
54270;BME280;40181;51.560;13.000;2023-03-04T08:25:10;100922.50;;;2.40;100.00
54270;BME280;40181;51.560;13.000;2023-03-04T08:27:39;100928.50;;;2.39;100.00
54270;BME280;40181;51.560;13.000;2023-03-04T08:30:09;100930.28;;;2.40;100.00
54270;BME280;40181;51.560;13.000;2023-03-04T08:32:38;100919.19;;;2.42;100.00
54270;BME280;40181;51.560;13.000;2023-03-04T08:35:07;100918.03;;;2.54;100.00
54270;BME280;40181;51.560;13.000;2023-03-04T08:37:36;100927.03;;;2.60;100.00
54270;BME280;40181;51.560;13.000;2023-03-04T08:40:05;100923.16;;;2.52;100.00
54270;BME280;40181;51.560;13.000;2023-03-04T08:42:37;100923.22;;;2.54;100.00
54270;BME280;40181;51.560;13.000;2023-03-04T08:45:07;100929.69;;;2.62;100.00
54270;BME280;40181;51.560;13.000;2023-03-04T08:47:36;100922.16;;;2.50;100.00
54270;BME280;40181;51.560;13.000;2023-03-04T08:50:06;100927.94;;;2.61;100.00
54270;BME280;40181;51.560;13.000;2023-03-04T08:52:36;100929.56;;;2.59;100.00
54270;BME280;40181;51.560;13.000;2023-03-04T08:55:05;100922.66;;;2.59;100.00
54270;BME280;40181;51.560;13.000;2023-03-04T08:57:34;100921.78;;;2.59;100.00
54270;BME280;40181;51.560;13.000;2023-03-04T09:00:06;100920.88;;;2.58;100.00
54270;BME280;40181;51.560;13.000;2023-03-04T09:02:36;100906.13;;;2.57;100.00
54270;BME280;40181;51.560;13.000;2023-03-04T09:05:05;100912.84;;;2.70;100.00
54270;BME280;40181;51.560;13.000;2023-03-04T09:07:35;100911.19;;;2.72;100.00
54270;BME280;40181;51.560;13.000;2023-03-04T09:10:04;100907.38;;;2.82;100.00
54270;BME280;40181;51.560;13.000;2023-03-04T09:12:34;100907.41;;;2.66;100.00
54270;BME280;40181;51.560;13.000;2023-03-04T09:15:06;100913.56;;;2.68;100.00
54270;BME280;40181;51.560;13.000;2023-03-04T09:17:35;100900.19;;;2.76;100.00
54270;BME280;40181;51.560;13.000;2023-03-04T09:20:05;100905.66;;;2.83;100.00
54270;BME280;40181;51.560;13.000;2023-03-04T09:22:38;100918.63;;;2.83;100.00
54270;BME280;40181;51.560;13.000;2023-03-04T09:25:08;100919.81;;;2.71;100.00
54270;BME280;40181;51.560;13.000;2023-03-04T09:27:41;100898.69;;;2.82;100.00
54270;BME280;40181;51.560;13.000;2023-03-04T09:30:10;100917.28;;;2.73;100.00
54270;BME280;40181;51.560;13.000;2023-03-04T09:32:39;100903.88;;;2.82;100.00
54270;BME280;40181;51.560;13.000;2023-03-04T09:35:08;100895.19;;;2.98;100.00
54270;BME280;40181;51.560;13.000;2023-03-04T09:37:37;100908.16;;;2.98;100.00
54270;BME280;40181;51.560;13.000;2023-03-04T09:40:07;100906.47;;;2.82;100.00
54270;BME280;40181;51.560;13.000;2023-03-04T09:42:42;100901.84;;;2.93;100.00
54270;BME280;40181;51.560;13.000;2023-03-04T09:45:15;100892.66;;;2.99;100.00
54270;BME280;40181;51.560;13.000;2023-03-04T09:47:46;100900.75;;;3.06;100.00
54270;BME280;40181;51.560;13.000;2023-03-04T09:50:17;100905.03;;;3.05;100.00
54270;BME280;40181;51.560;13.000;2023-03-04T09:52:50;100892.81;;;3.02;100.00
54270;BME280;40181;51.560;13.000;2023-03-04T09:55:34;100892.97;;;3.06;100.00
54270;BME280;40181;51.560;13.000;2023-03-04T09:58:10;100889.84;;;3.13;100.00
54270;BME280;40181;51.560;13.000;2023-03-04T10:00:51;100884.72;;;3.14;100.00
54270;BME280;40181;51.560;13.000;2023-03-04T10:03:23;100883.63;;;3.09;100.00
54270;BME280;40181;51.560;13.000;2023-03-04T10:05:55;100877.22;;;3.21;100.00
54270;BME280;40181;51.560;13.000;2023-03-04T10:08:31;100886.66;;;3.18;100.00
54270;BME280;40181;51.560;13.000;2023-03-04T10:11:05;100869.13;;;3.14;100.00
54270;BME280;40181;51.560;13.000;2023-03-04T10:13:46;100862.75;;;3.44;100.00
54270;BME280;40181;51.560;13.000;2023-03-04T10:16:23;100867.44;;;3.51;100.00
54270;BME280;40181;51.560;13.000;2023-03-04T10:18:57;100869.81;;;3.46;100.00
54270;BME280;40181;51.560;13.000;2023-03-04T10:21:29;100876.47;;;3.41;100.00
54270;BME280;40181;51.560;13.000;2023-03-04T10:24:00;100872.19;;;3.42;100.00
54270;BME280;40181;51.560;13.000;2023-03-04T10:26:34;100874.91;;;3.45;100.00
54270;BME280;40181;51.560;13.000;2023-03-04T10:29:07;100869.34;;;3.55;100.00
54270;BME280;40181;51.560;13.000;2023-03-04T10:31:36;100869.50;;;3.58;100.00
54270;BME280;40181;51.560;13.000;2023-03-04T10:34:08;100864.09;;;3.54;100.00
54270;BME280;40181;51.560;13.000;2023-03-04T10:36:42;100865.72;;;3.52;100.00
54270;BME280;40181;51.560;13.000;2023-03-04T10:39:16;100862.66;;;3.60;100.00
54270;BME280;40181;51.560;13.000;2023-03-04T10:41:53;100854.78;;;3.59;100.00
54270;BME280;40181;51.560;13.000;2023-03-04T10:44:29;100859.41;;;3.65;100.00
54270;BME280;40181;51.560;13.000;2023-03-04T10:46:58;100854.25;;;3.66;100.00
54270;BME280;40181;51.560;13.000;2023-03-04T10:49:28;100864.47;;;3.81;100.00
54270;BME280;40181;51.560;13.000;2023-03-04T10:52:00;100859.06;;;3.77;100.00
54270;BME280;40181;51.560;13.000;2023-03-04T10:54:31;100847.59;;;3.91;100.00
54270;BME280;40181;51.560;13.000;2023-03-04T10:57:03;100859.22;;;3.99;100.00
54270;BME280;40181;51.560;13.000;2023-03-04T10:59:44;100858.19;;;3.96;100.00
54270;BME280;40181;51.560;13.000;2023-03-04T11:02:24;100846.16;;;3.98;100.00
54270;BME280;40181;51.560;13.000;2023-03-04T11:04:55;100860.88;;;3.97;100.00
54270;BME280;40181;51.560;13.000;2023-03-04T11:07:35;100846.75;;;4.12;100.00
54270;BME280;40181;51.560;13.000;2023-03-04T11:10:07;100847.91;;;4.19;100.00
54270;BME280;40181;51.560;13.000;2023-03-04T11:12:38;100840.13;;;4.19;100.00
54270;BME280;40181;51.560;13.000;2023-03-04T11:15:18;100850.47;;;4.17;100.00
54270;BME280;40181;51.560;13.000;2023-03-04T11:17:52;100844.94;;;4.29;100.00
54270;BME280;40181;51.560;13.000;2023-03-04T11:20:28;100840.94;;;4.37;100.00
54270;BME280;40181;51.560;13.000;2023-03-04T11:23:00;100840.03;;;4.37;100.00
54270;BME280;40181;51.560;13.000;2023-03-04T11:25:32;100830.75;;;4.42;100.00
54270;BME280;40181;51.560;13.000;2023-03-04T11:28:03;100836.75;;;4.41;100.00
54270;BME280;40181;51.560;13.000;2023-03-04T11:30:41;100829.47;;;4.53;100.00
54270;BME280;40181;51.560;13.000;2023-03-04T11:33:13;100833.53;;;4.47;100.00
54270;BME280;40181;51.560;13.000;2023-03-04T11:35:47;100832.19;;;4.56;100.00
54270;BME280;40181;51.560;13.000;2023-03-04T11:38:23;100834.56;;;4.50;100.00
54270;BME280;40181;51.560;13.000;2023-03-04T11:40:56;100837.91;;;4.48;100.00
54270;BME280;40181;51.560;13.000;2023-03-04T11:43:28;100828.34;;;4.47;100.00
54270;BME280;40181;51.560;13.000;2023-03-04T11:46:08;100832.19;;;4.56;100.00
54270;BME280;40181;51.560;13.000;2023-03-04T11:48:48;100823.38;;;4.53;100.00
54270;BME280;40181;51.560;13.000;2023-03-04T11:51:22;100832.28;;;4.58;100.00
54270;BME280;40181;51.560;13.000;2023-03-04T11:54:03;100812.22;;;4.55;100.00
54270;BME280;40181;51.560;13.000;2023-03-04T11:56:41;100814.56;;;4.70;100.00
54270;BME280;40181;51.560;13.000;2023-03-04T12:02:14;100806.50;;;4.64;100.00
54270;BME280;40181;51.560;13.000;2023-03-04T12:04:58;100797.16;;;4.69;100.00
54270;BME280;40181;51.560;13.000;2023-03-04T12:07:39;100799.00;;;4.72;100.00
54270;BME280;40181;51.560;13.000;2023-03-04T12:10:16;100799.84;;;4.71;100.00
54270;BME280;40181;51.560;13.000;2023-03-04T12:13:04;100808.53;;;4.71;100.00
54270;BME280;40181;51.560;13.000;2023-03-04T12:15:54;100804.78;;;4.65;100.00
54270;BME280;40181;51.560;13.000;2023-03-04T12:18:42;100797.09;;;4.68;100.00
54270;BME280;40181;51.560;13.000;2023-03-04T12:21:23;100794.91;;;4.56;100.00
54270;BME280;40181;51.560;13.000;2023-03-04T12:26:49;100794.44;;;4.66;100.00
54270;BME280;40181;51.560;13.000;2023-03-04T12:29:22;100791.84;;;4.66;100.00
54270;BME280;40181;51.560;13.000;2023-03-04T12:31:58;100790.13;;;4.67;100.00
54270;BME280;40181;51.560;13.000;2023-03-04T12:34:45;100786.69;;;4.68;100.00
54270;BME280;40181;51.560;13.000;2023-03-04T12:40:22;100772.91;;;4.70;100.00
54270;BME280;40181;51.560;13.000;2023-03-04T12:43:00;100783.78;;;4.60;100.00
54270;BME280;40181;51.560;13.000;2023-03-04T12:45:39;100782.25;;;4.65;100.00
54270;BME280;40181;51.560;13.000;2023-03-04T12:48:16;100778.50;;;4.80;99.63
54270;BME280;40181;51.560;13.000;2023-03-04T12:50:59;100779.47;;;4.82;99.46
54270;BME280;40181;51.560;13.000;2023-03-04T12:53:42;100776.97;;;4.85;99.75
54270;BME280;40181;51.560;13.000;2023-03-04T12:56:21;100772.53;;;4.82;99.72
54270;BME280;40181;51.560;13.000;2023-03-04T12:58:52;100780.88;;;4.74;100.00
54270;BME280;40181;51.560;13.000;2023-03-04T13:01:23;100769.16;;;4.85;100.00
54270;BME280;40181;51.560;13.000;2023-03-04T13:03:56;100772.41;;;4.79;100.00
54270;BME280;40181;51.560;13.000;2023-03-04T13:06:33;100772.09;;;4.71;100.00
54270;BME280;40181;51.560;13.000;2023-03-04T13:09:08;100782.09;;;4.41;100.00
54270;BME280;40181;51.560;13.000;2023-03-04T13:11:49;100790.00;;;4.42;100.00